Time;durP1;ratioP1;P1;durP2;ratioP2;P2;SDS_P1;SDS_P2;PMS_P1;PMS_P2;Temp;Humidity;BMP_temperature;BMP_pressure;BME280_temperature;BME280_humidity;BME280_pressure;Samples;Min_cycle;Max_cycle;Signal;HPM_P1;HPM_P2
2021/03/30 00:02:57;;;;;;;4.67;4.20;;;11.90;24.60;;;;;;10414768;28;20313;-69
2021/03/30 00:08:00;;;;;;;4.33;3.80;;;11.90;24.70;;;;;;10415590;28;20324;-70
2021/03/30 00:13:02;;;;;;;8.20;4.90;;;11.90;24.80;;;;;;10419350;28;20230;-70
2021/03/30 00:18:05;;;;;;;4.87;3.60;;;11.90;24.80;;;;;;10415370;28;20237;-69
2021/03/30 00:23:08;;;;;;;4.30;3.90;;;11.70;24.50;;;;;;10407398;28;20233;-69
2021/03/30 00:28:10;;;;;;;4.10;3.37;;;11.60;24.90;;;;;;10415825;28;20225;-70
2021/03/30 00:33:12;;;;;;;7.53;4.60;;;11.60;24.90;;;;;;10412920;28;20234;-70
2021/03/30 00:38:15;;;;;;;5.17;4.10;;;11.50;25.00;;;;;;10412544;28;20224;-69
2021/03/30 00:43:17;;;;;;;4.57;4.17;;;11.50;25.00;;;;;;10415088;28;20540;-70
2021/03/30 00:48:23;;;;;;;4.93;3.73;;;11.30;24.80;;;;;;10416382;28;20767;-70
2021/03/30 00:53:27;;;;;;;6.43;4.60;;;11.10;25.10;;;;;;10411736;28;20236;-69
2021/03/30 00:58:29;;;;;;;4.57;4.07;;;10.80;25.10;;;;;;10419586;28;20229;-69
2021/03/30 01:03:31;;;;;;;5.13;3.20;;;10.60;25.20;;;;;;10409079;28;20234;-69
2021/03/30 01:08:53;;;;;;;4.43;4.03;;;10.50;25.30;;;;;;10415006;28;20694;-69
2021/03/30 01:14:03;;;;;;;4.73;4.20;;;10.50;26.30;;;;;;10411214;28;20226;-69
2021/03/30 01:19:13;;;;;;;5.47;4.07;;;10.50;25.90;;;;;;10410207;28;20737;-70
2021/03/30 01:24:22;;;;;;;6.33;4.17;;;10.50;26.10;;;;;;10410207;28;20226;-69
2021/03/30 01:29:40;;;;;;;5.67;4.17;;;10.30;26.20;;;;;;10410984;28;20646;-69
2021/03/30 01:34:45;;;;;;;4.50;3.57;;;10.10;26.80;;;;;;10409432;28;20727;-69
2021/03/30 01:39:51;;;;;;;5.07;4.23;;;10.10;26.10;;;;;;10406002;28;20229;-69
2021/03/30 01:44:55;;;;;;;4.80;4.10;;;10.10;26.70;;;;;;10410293;28;20616;-69
2021/03/30 01:49:58;;;;;;;3.77;3.37;;;10.10;26.10;;;;;;10413425;28;20255;-69
2021/03/30 01:55:02;;;;;;;4.23;3.63;;;10.10;26.10;;;;;;10408531;28;20739;-69
2021/03/30 02:00:08;;;;;;;4.83;3.13;;;10.00;26.10;;;;;;10412506;28;20308;-69
2021/03/30 02:05:12;;;;;;;4.93;3.47;;;10.00;26.50;;;;;;10404667;28;20229;-69
2021/03/30 02:10:18;;;;;;;2.93;2.73;;;10.00;26.20;;;;;;10407939;28;20701;-69
2021/03/30 02:15:21;;;;;;;3.50;3.20;;;10.10;26.20;;;;;;10409674;28;20600;-69
2021/03/30 02:20:29;;;;;;;4.10;3.70;;;10.10;26.20;;;;;;10412460;28;20750;-69
2021/03/30 02:25:33;;;;;;;4.00;3.60;;;10.10;26.80;;;;;;10409529;28;20233;-69
2021/03/30 02:30:38;;;;;;;5.40;3.87;;;10.10;26.30;;;;;;10408243;28;20713;-69
2021/03/30 02:35:42;;;;;;;4.60;3.80;;;10.10;26.40;;;;;;10408237;28;20229;-69
2021/03/30 02:40:46;;;;;;;6.63;3.97;;;10.00;26.00;;;;;;10412821;28;20233;-69
2021/03/30 02:45:51;;;;;;;3.60;3.27;;;9.90;27.00;;;;;;10405675;28;20628;-69
2021/03/30 02:50:54;;;;;;;4.97;3.60;;;9.80;27.20;;;;;;10410137;28;20312;-69
2021/03/30 02:55:56;;;;;;;4.50;3.83;;;9.70;27.00;;;;;;10411277;28;20682;-69
2021/03/30 03:00:59;;;;;;;3.73;2.97;;;9.70;27.20;;;;;;10403832;28;20226;-69
2021/03/30 03:06:02;;;;;;;3.97;3.67;;;9.70;27.30;;;;;;10408340;28;20232;-69
2021/03/30 03:11:05;;;;;;;3.37;2.90;;;9.70;27.20;;;;;;10409688;28;20585;-69
2021/03/30 03:16:09;;;;;;;3.80;3.30;;;9.70;27.20;;;;;;10405225;28;20237;-69
2021/03/30 03:21:12;;;;;;;4.63;3.03;;;9.60;27.20;;;;;;10401314;28;20603;-70
2021/03/30 03:26:15;;;;;;;4.50;3.40;;;9.60;27.20;;;;;;10411120;28;20637;-69
2021/03/30 03:31:27;;;;;;;4.23;3.43;;;9.50;27.20;;;;;;10407037;28;20238;-70
2021/03/30 03:36:36;;;;;;;3.43;3.13;;;9.50;28.00;;;;;;10408352;28;20793;-70
2021/03/30 03:41:40;;;;;;;3.57;3.27;;;9.50;27.80;;;;;;10404553;28;20697;-70
2021/03/30 03:46:43;;;;;;;6.53;3.93;;;9.50;27.30;;;;;;10406883;28;20343;-70
2021/03/30 03:51:49;;;;;;;4.50;4.03;;;9.50;27.40;;;;;;10405866;28;20232;-70
2021/03/30 03:56:57;;;;;;;4.63;4.03;;;9.40;27.50;;;;;;10413116;28;20236;-70
2021/03/30 04:02:09;;;;;;;5.07;3.40;;;9.30;27.70;;;;;;10413789;28;20288;-70
2021/03/30 04:07:16;;;;;;;5.67;3.30;;;9.20;27.90;;;;;;10410523;28;20690;-70
2021/03/30 04:12:20;;;;;;;6.20;4.40;;;9.20;27.90;;;;;;10417847;28;20328;-70
2021/03/30 04:17:23;;;;;;;7.87;4.10;;;9.20;27.60;;;;;;10419475;28;20252;-70
2021/03/30 04:22:25;;;;;;;5.87;4.20;;;9.10;27.60;;;;;;10415933;28;20221;-70
2021/03/30 04:27:27;;;;;;;7.40;4.80;;;9.10;27.50;;;;;;10416832;28;20723;-70
2021/03/30 04:32:30;;;;;;;6.93;4.50;;;9.10;27.60;;;;;;10413009;28;20240;-70
2021/03/30 04:37:33;;;;;;;5.43;4.47;;;9.10;27.70;;;;;;10414004;28;20612;-70
2021/03/30 04:42:36;;;;;;;5.47;4.17;;;9.00;27.50;;;;;;10419787;28;20304;-70
2021/03/30 04:47:39;;;;;;;5.37;4.00;;;8.90;27.50;;;;;;10409890;28;20233;-71
2021/03/30 04:52:41;;;;;;;6.33;3.87;;;8.80;27.80;;;;;;10412893;28;20622;-71
2021/03/30 04:57:43;;;;;;;4.03;2.90;;;8.60;27.60;;;;;;10408226;28;20230;-71
2021/03/30 05:02:46;;;;;;;5.77;3.77;;;8.50;27.70;;;;;;10405754;28;20225;-71
2021/03/30 05:07:48;;;;;;;5.03;4.33;;;8.40;28.10;;;;;;10408311;28;20232;-72
2021/03/30 05:12:50;;;;;;;5.60;4.57;;;8.30;28.00;;;;;;10407201;28;20230;-71
2021/03/30 05:17:53;;;;;;;4.67;4.20;;;8.30;28.00;;;;;;10409153;28;20237;-73
2021/03/30 05:22:55;;;;;;;7.63;4.90;;;8.30;28.00;;;;;;10408522;28;20708;-72
2021/03/30 05:27:58;;;;;;;6.83;3.97;;;8.30;28.00;;;;;;10410602;28;20236;-72
2021/03/30 05:33:01;;;;;;;6.30;3.97;;;8.20;27.90;;;;;;10407093;28;20618;-72
2021/03/30 05:38:03;;;;;;;5.43;4.00;;;8.20;28.20;;;;;;10414133;28;20309;-72
2021/03/30 05:43:05;;;;;;;13.97;8.93;;;8.20;28.10;;;;;;10410092;28;20390;-72
2021/03/30 05:48:14;;;;;;;5.37;4.63;;;8.20;28.40;;;;;;10400815;28;20231;-72
2021/03/30 05:53:18;;;;;;;6.67;3.90;;;8.20;28.90;;;;;;10405353;28;20233;-72
2021/03/30 05:58:21;;;;;;;5.30;4.33;;;8.30;28.60;;;;;;10408032;28;20237;-72
2021/03/30 06:03:26;;;;;;;8.53;6.00;;;8.30;28.60;;;;;;10406918;28;20255;-72
2021/03/30 06:08:31;;;;;;;9.57;5.67;;;8.30;29.00;;;;;;10410492;28;20564;-72
2021/03/30 06:13:47;;;;;;;8.33;6.23;;;8.30;29.10;;;;;;10408454;28;20242;-72
2021/03/30 06:19:01;;;;;;;6.67;5.63;;;8.30;30.00;;;;;;10407571;28;20772;-72
2021/03/30 06:24:25;;;;;;;5.70;4.50;;;8.40;30.10;;;;;;10409200;28;20952;-72
2021/03/30 06:29:34;;;;;;;9.17;3.57;;;8.40;30.00;;;;;;10403117;28;20229;-72
2021/03/30 06:34:39;;;;;;;9.37;4.40;;;8.50;29.30;;;;;;10404951;28;20646;-72
2021/03/30 06:39:41;;;;;;;9.00;5.10;;;8.60;29.40;;;;;;10412006;28;20234;-72
2021/03/30 06:44:43;;;;;;;9.80;5.60;;;8.70;29.30;;;;;;10410321;28;20731;-71
2021/03/30 06:49:54;;;;;;;5.77;4.47;;;8.80;29.50;;;;;;10409126;28;20731;-71
2021/03/30 06:55:00;;;;;;;7.67;3.80;;;8.90;31.10;;;;;;10403141;28;20747;-69
2021/03/30 07:00:06;;;;;;;7.43;6.67;;;9.00;31.40;;;;;;10404894;28;20226;-69
2021/03/30 07:05:24;;;;;;;17.50;11.43;;;9.20;30.70;;;;;;10396344;28;20255;-69
2021/03/30 07:10:28;;;;;;;13.03;8.43;;;9.40;31.60;;;;;;10404743;28;20804;-69
2021/03/30 07:15:30;;;;;;;9.87;7.10;;;9.60;30.30;;;;;;10404028;28;20324;-69
2021/03/30 07:20:38;;;;;;;7.00;5.60;;;9.80;30.10;;;;;;10406450;28;20229;-70
2021/03/30 07:25:48;;;;;;;9.00;5.30;;;10.00;29.80;;;;;;10404462;28;20238;-69
2021/03/30 07:30:55;;;;;;;5.57;5.00;;;10.20;30.00;;;;;;10410436;28;20225;-69
2021/03/30 07:35:59;;;;;;;7.83;5.00;;;10.40;29.50;;;;;;10411793;28;20337;-69
2021/03/30 07:41:01;;;;;;;5.47;4.97;;;10.50;29.10;;;;;;10413145;28;20232;-69
2021/03/30 07:46:05;;;;;;;8.30;5.50;;;10.70;28.80;;;;;;10414190;28;20320;-69
2021/03/30 07:51:09;;;;;;;5.03;4.53;;;10.90;29.40;;;;;;10403019;28;20601;-69
2021/03/30 07:56:13;;;;;;;8.70;5.40;;;11.10;29.50;;;;;;10411536;28;20238;-69
2021/03/30 08:01:17;;;;;;;11.40;5.23;;;11.40;29.30;;;;;;10413257;28;20726;-69
2021/03/30 08:06:22;;;;;;;7.67;5.23;;;11.80;29.50;;;;;;10410678;28;20233;-69
2021/03/30 08:11:50;;;;;;;7.27;6.00;;;12.20;29.80;;;;;;10411994;28;20894;-69
2021/03/30 08:16:55;;;;;;;7.43;6.23;;;12.50;30.00;;;;;;10409015;28;20230;-68
2021/03/30 08:22:00;;;;;;;7.17;6.53;;;12.90;29.40;;;;;;10411724;28;20733;-68
2021/03/30 08:27:03;;;;;;;6.37;5.70;;;13.30;28.80;;;;;;10416114;28;20279;-68
2021/03/30 08:32:06;;;;;;;7.37;5.97;;;13.60;28.60;;;;;;10407955;28;20230;-68
2021/03/30 08:37:11;;;;;;;6.33;5.73;;;13.90;28.30;;;;;;10406435;28;20731;-68
2021/03/30 08:42:14;;;;;;;6.80;5.97;;;14.30;28.70;;;;;;10409677;28;20230;-68
2021/03/30 08:47:32;;;;;;;6.63;5.97;;;14.70;28.40;;;;;;10409551;28;20304;-68
2021/03/30 08:52:35;;;;;;;7.13;6.53;;;15.10;28.00;;;;;;10411591;28;20232;-68
2021/03/30 08:57:45;;;;;;;7.17;6.50;;;15.40;27.90;;;;;;10409656;28;20234;-68
2021/03/30 09:02:59;;;;;;;8.13;6.53;;;15.80;27.70;;;;;;10411197;28;20375;-68
2021/03/30 09:08:02;;;;;;;10.73;7.07;;;16.10;27.30;;;;;;10410639;28;20240;-68
2021/03/30 09:13:10;;;;;;;7.93;7.17;;;16.40;27.40;;;;;;10407464;28;20264;-68
2021/03/30 09:18:23;;;;;;;7.87;6.63;;;16.70;26.80;;;;;;10405876;28;20236;-68
2021/03/30 09:23:27;;;;;;;8.40;7.60;;;17.10;26.50;;;;;;10408087;28;20260;-69
2021/03/30 09:28:30;;;;;;;9.13;7.03;;;17.50;27.10;;;;;;10407623;28;20327;-68
2021/03/30 09:33:32;;;;;;;9.37;7.67;;;17.80;27.10;;;;;;10409553;28;20611;-68
2021/03/30 09:38:48;;;;;;;8.33;7.50;;;18.20;26.70;;;;;;10407362;28;20233;-69
2021/03/30 09:43:50;;;;;;;8.43;7.30;;;18.50;25.60;;;;;;10402797;28;20233;-68
2021/03/30 09:48:56;;;;;;;8.07;7.27;;;18.70;26.20;;;;;;10398800;28;20261;-68
2021/03/30 09:53:59;;;;;;;8.47;7.53;;;18.90;26.20;;;;;;10406637;28;20261;-68
2021/03/30 09:59:01;;;;;;;7.97;7.00;;;19.10;25.90;;;;;;10408666;28;20240;-69
2021/03/30 10:04:04;;;;;;;8.73;7.67;;;19.30;26.20;;;;;;10407198;28;20236;-69
2021/03/30 10:09:08;;;;;;;7.57;6.77;;;19.60;26.40;;;;;;10408467;28;20225;-69
2021/03/30 10:14:24;;;;;;;9.40;7.93;;;19.90;26.10;;;;;;10396519;28;20234;-68
2021/03/30 10:19:27;;;;;;;10.10;7.80;;;20.20;25.40;;;;;;10404622;28;20779;-68
2021/03/30 10:24:30;;;;;;;7.90;7.07;;;20.40;25.60;;;;;;10406423;28;20229;-68
2021/03/30 10:29:41;;;;;;;8.20;7.37;;;20.60;25.70;;;;;;10404764;28;20507;-68
2021/03/30 10:34:44;;;;;;;8.57;7.77;;;20.80;25.10;;;;;;10406368;28;20221;-68
2021/03/30 10:39:47;;;;;;;8.27;7.47;;;21.00;25.50;;;;;;10406117;28;20614;-68
2021/03/30 10:44:57;;;;;;;8.57;7.77;;;21.30;25.00;;;;;;10404776;28;20243;-68
2021/03/30 10:50:00;;;;;;;8.93;8.03;;;21.50;24.10;;;;;;10405580;28;20705;-67
2021/03/30 10:55:06;;;;;;;9.07;8.17;;;21.80;24.60;;;;;;10406035;28;20225;-68
2021/03/30 11:00:11;;;;;;;8.67;7.77;;;22.00;23.70;;;;;;10401503;28;20322;-68
2021/03/30 11:05:15;;;;;;;8.77;7.70;;;22.20;23.70;;;;;;10407162;28;20227;-68
2021/03/30 11:10:20;;;;;;;8.63;7.83;;;22.30;24.00;;;;;;10408748;28;20240;-69
2021/03/30 11:15:22;;;;;;;11.47;8.83;;;22.50;23.70;;;;;;10409574;28;20312;-70
2021/03/30 11:20:25;;;;;;;10.87;8.33;;;22.60;23.40;;;;;;10407099;28;20229;-69
2021/03/30 11:25:27;;;;;;;8.60;7.80;;;22.70;23.10;;;;;;10405964;28;20225;-69
2021/03/30 11:30:36;;;;;;;8.97;7.50;;;22.70;22.40;;;;;;10407710;28;20235;-69
2021/03/30 11:35:46;;;;;;;8.07;7.17;;;22.70;22.20;;;;;;10409866;28;20250;-69
2021/03/30 11:40:49;;;;;;;9.10;7.37;;;22.80;22.50;;;;;;10403307;28;20232;-69
2021/03/30 11:45:52;;;;;;;8.33;7.17;;;22.90;22.20;;;;;;10405458;28;20230;-69
2021/03/30 11:50:54;;;;;;;7.63;6.93;;;23.00;22.20;;;;;;10406326;28;20240;-69
2021/03/30 11:55:57;;;;;;;7.30;6.60;;;23.00;22.20;;;;;;10404921;28;20643;-69
2021/03/30 12:00:59;;;;;;;7.47;6.43;;;23.20;21.50;;;;;;10405984;28;20714;-69
2021/03/30 12:06:02;;;;;;;6.93;6.33;;;23.20;21.50;;;;;;10405882;28;20606;-69
2021/03/30 12:11:05;;;;;;;7.40;6.70;;;23.30;21.50;;;;;;10405375;28;20606;-69
2021/03/30 12:16:07;;;;;;;7.40;6.70;;;23.50;21.10;;;;;;10410648;28;20240;-69
2021/03/30 12:21:09;;;;;;;7.10;6.50;;;23.50;21.00;;;;;;10407631;28;20229;-69
2021/03/30 12:26:12;;;;;;;5.73;5.13;;;23.70;20.70;;;;;;10412827;28;20545;-69
2021/03/30 12:31:15;;;;;;;5.83;5.20;;;23.70;20.40;;;;;;10412225;28;20229;-69
2021/03/30 12:36:17;;;;;;;4.50;4.10;;;23.70;20.30;;;;;;10408210;28;20738;-69
2021/03/30 12:41:20;;;;;;;5.23;4.30;;;23.70;20.00;;;;;;10412573;28;20252;-69
2021/03/30 12:46:22;;;;;;;5.03;4.57;;;23.70;19.60;;;;;;10413258;28;20237;-69
2021/03/30 12:51:24;;;;;;;4.50;4.10;;;23.80;19.70;;;;;;10410979;28;20251;-69
2021/03/30 12:56:27;;;;;;;4.47;4.07;;;23.80;19.40;;;;;;10410442;28;20225;-69
2021/03/30 13:01:31;;;;;;;5.17;4.67;;;23.80;19.20;;;;;;10411242;28;20237;-69
2021/03/30 13:06:33;;;;;;;4.33;3.93;;;23.90;19.00;;;;;;10411599;28;20324;-69
2021/03/30 13:11:36;;;;;;;2.97;2.77;;;23.90;19.30;;;;;;10407482;28;20713;-69
2021/03/30 13:16:38;;;;;;;2.87;2.40;;;23.90;18.60;;;;;;10410472;28;20236;-69
2021/03/30 13:21:40;;;;;;;4.13;2.47;;;23.90;18.60;;;;;;10409982;28;20755;-70
2021/03/30 13:26:43;;;;;;;2.80;2.60;;;23.90;18.40;;;;;;10410394;28;20236;-70
2021/03/30 13:31:45;;;;;;;2.97;2.77;;;24.00;17.90;;;;;;10413115;28;20605;-69
2021/03/30 13:36:49;;;;;;;3.10;2.77;;;24.00;18.20;;;;;;10409168;28;20316;-71
2021/03/30 13:41:54;;;;;;;3.57;2.67;;;24.10;18.40;;;;;;10407302;28;20235;-71
2021/03/30 13:47:01;;;;;;;3.43;3.00;;;24.20;18.00;;;;;;10407989;28;20221;-70
2021/03/30 13:52:04;;;;;;;3.30;3.00;;;24.30;18.10;;;;;;10411598;28;20232;-70
2021/03/30 13:57:08;;;;;;;3.60;3.30;;;24.30;18.10;;;;;;10407800;28;20638;-70
2021/03/30 14:02:10;;;;;;;3.90;3.50;;;24.40;18.10;;;;;;10403923;28;20234;-72
2021/03/30 14:07:13;;;;;;;3.27;2.97;;;24.50;17.90;;;;;;10399843;28;20228;-71
2021/03/30 14:12:20;;;;;;;4.03;2.90;;;24.50;18.20;;;;;;10403341;28;20221;-71
2021/03/30 14:17:27;;;;;;;4.60;2.80;;;24.50;17.60;;;;;;10402385;28;20230;-71
2021/03/30 14:22:33;;;;;;;3.07;2.70;;;24.50;17.70;;;;;;10408038;28;20225;-71
2021/03/30 14:27:37;;;;;;;3.90;3.37;;;24.60;17.60;;;;;;10396969;28;20233;-71
2021/03/30 14:33:00;;;;;;;3.07;2.80;;;24.60;17.00;;;;;;10406343;28;20218;-71
2021/03/30 14:38:02;;;;;;;3.93;3.33;;;24.70;17.10;;;;;;10400691;28;20580;-69
2021/03/30 14:43:08;;;;;;;3.40;3.10;;;24.70;17.10;;;;;;10404359;28;20609;-69
2021/03/30 14:54:11;;;;;;;3.03;2.73;;;24.70;17.00;;;;;;10395709;28;20218;-68
2021/03/30 14:59:16;;;;;;;3.40;3.10;;;24.70;16.70;;;;;;10407326;28;20349;-69
2021/03/30 15:04:19;;;;;;;2.97;2.67;;;24.70;16.60;;;;;;10405367;28;20309;-69
2021/03/30 15:09:21;;;;;;;2.90;2.57;;;24.70;16.80;;;;;;10407013;28;20317;-69
2021/03/30 15:14:24;;;;;;;3.17;2.77;;;24.70;16.70;;;;;;10406909;28;20316;-69
2021/03/30 15:19:26;;;;;;;3.17;2.80;;;24.70;16.40;;;;;;10408044;28;20713;-69
2021/03/30 15:24:30;;;;;;;2.87;2.60;;;24.70;16.60;;;;;;10405601;28;20578;-69
2021/03/30 15:29:33;;;;;;;2.93;2.67;;;24.70;16.30;;;;;;10406396;28;20225;-71
2021/03/30 15:34:35;;;;;;;2.93;2.50;;;24.70;16.50;;;;;;10409325;28;20317;-71
2021/03/30 15:39:38;;;;;;;3.70;2.57;;;24.70;16.40;;;;;;10407665;28;20231;-71
2021/03/30 15:44:49;;;;;;;8.77;2.97;;;24.70;16.00;;;;;;10408408;28;20240;-71
2021/03/30 15:49:52;;;;;;;6.50;3.40;;;24.70;15.90;;;;;;10409190;28;20231;-71
2021/03/30 15:54:59;;;;;;;10.40;4.67;;;24.70;15.80;;;;;;10414315;28;20244;-70
2021/03/30 16:00:03;;;;;;;4.43;2.60;;;24.70;15.90;;;;;;10417217;28;20217;-71
2021/03/30 16:05:07;;;;;;;5.07;3.13;;;24.70;15.90;;;;;;10414076;28;20233;-71
2021/03/30 16:10:11;;;;;;;3.47;3.17;;;24.70;15.60;;;;;;10417186;28;20261;-71
2021/03/30 16:15:15;;;;;;;4.67;3.70;;;24.70;16.00;;;;;;10415075;28;20253;-71
2021/03/30 16:20:17;;;;;;;4.90;3.57;;;24.70;15.30;;;;;;10413426;28;20233;-71
2021/03/30 16:25:19;;;;;;;4.77;3.47;;;24.70;15.90;;;;;;10414691;28;20222;-71
2021/03/30 16:30:23;;;;;;;5.33;3.70;;;24.70;16.40;;;;;;10416244;28;20233;-70
2021/03/30 16:35:25;;;;;;;4.03;3.50;;;24.70;16.50;;;;;;10411279;28;20729;-70
2021/03/30 16:40:27;;;;;;;4.70;3.53;;;24.70;16.70;;;;;;10414080;28;20239;-69
2021/03/30 16:45:30;;;;;;;3.73;3.00;;;24.60;16.80;;;;;;10412914;28;20234;-69
2021/03/30 16:50:33;;;;;;;4.50;3.73;;;24.60;16.70;;;;;;10410082;28;20766;-70
2021/03/30 16:55:35;;;;;;;5.97;4.80;;;24.60;16.80;;;;;;10411249;28;20623;-70
2021/03/30 17:00:38;;;;;;;5.00;4.10;;;24.50;16.90;;;;;;10409398;28;20733;-70
2021/03/30 17:05:41;;;;;;;4.70;3.90;;;24.50;16.80;;;;;;10410012;28;20230;-69
2021/03/30 17:10:44;;;;;;;4.37;3.83;;;24.40;16.70;;;;;;10412452;28;20316;-70
2021/03/30 17:15:47;;;;;;;3.57;3.27;;;24.30;16.70;;;;;;10409702;28;20593;-70
2021/03/30 17:21:10;;;;;;;5.47;3.20;;;24.30;16.90;;;;;;10408315;28;20709;-70
2021/03/30 17:26:12;;;;;;;3.43;3.07;;;24.10;17.10;;;;;;10410542;28;20225;-69
2021/03/30 17:31:16;;;;;;;3.60;2.73;;;24.00;17.00;;;;;;10411896;28;20259;-70
2021/03/30 17:36:18;;;;;;;4.00;3.60;;;23.90;17.10;;;;;;10407991;28;20236;-69
2021/03/30 17:41:21;;;;;;;4.73;3.30;;;23.70;17.60;;;;;;10413238;28;20393;-69
2021/03/30 17:46:24;;;;;;;3.60;2.93;;;23.60;17.60;;;;;;10413495;28;20238;-69
2021/03/30 17:51:26;;;;;;;2.73;2.53;;;23.40;17.50;;;;;;10410467;28;20749;-70
2021/03/30 17:56:29;;;;;;;6.60;4.47;;;23.20;17.30;;;;;;10410639;28;20316;-70
2021/03/30 18:01:33;;;;;;;4.87;4.33;;;23.00;17.20;;;;;;10406709;28;20237;-70
2021/03/30 18:06:36;;;;;;;7.37;5.03;;;22.80;17.40;;;;;;10405312;28;20229;-70
2021/03/30 18:11:40;;;;;;;4.37;3.50;;;22.60;17.30;;;;;;10406462;28;20229;-70
2021/03/30 18:16:44;;;;;;;3.70;3.33;;;22.40;17.60;;;;;;10410464;28;20233;-69
2021/03/30 18:21:46;;;;;;;3.50;3.20;;;22.20;17.80;;;;;;10405516;28;20248;-70
2021/03/30 18:26:48;;;;;;;3.57;3.27;;;22.00;17.60;;;;;;10408745;28;20234;-70
2021/03/30 18:31:52;;;;;;;2.97;2.77;;;21.60;17.80;;;;;;10400313;28;20718;-70
2021/03/30 18:36:55;;;;;;;5.80;5.00;;;21.40;18.10;;;;;;10411891;28;21002;-70
2021/03/30 18:41:57;;;;;;;6.27;5.67;;;21.20;18.30;;;;;;10398596;28;20229;-70
2021/03/30 18:47:00;;;;;;;6.77;5.80;;;21.10;18.50;;;;;;10399344;28;20697;-70
2021/03/30 18:52:03;;;;;;;6.03;3.90;;;20.90;18.60;;;;;;10396454;28;20698;-70
2021/03/30 18:57:10;;;;;;;4.37;3.97;;;20.80;19.00;;;;;;10398290;28;20641;-70
2021/03/30 19:02:13;;;;;;;6.97;4.97;;;20.50;18.40;;;;;;10392008;28;20287;-70
2021/03/30 19:07:16;;;;;;;7.43;5.70;;;20.30;18.70;;;;;;10398498;28;20234;-70
2021/03/30 19:12:18;;;;;;;6.97;5.90;;;20.10;18.80;;;;;;10401040;28;20241;-70
2021/03/30 19:17:21;;;;;;;7.17;5.53;;;19.90;19.00;;;;;;10403275;28;20230;-70
2021/03/30 19:22:25;;;;;;;5.20;4.63;;;19.70;19.20;;;;;;10400645;28;20686;-70
2021/03/30 19:27:29;;;;;;;6.00;4.60;;;19.60;19.20;;;;;;10404910;28;20237;-70
2021/03/30 19:32:33;;;;;;;4.50;3.77;;;19.40;19.00;;;;;;10411974;28;20312;-70
2021/03/30 19:37:36;;;;;;;7.07;5.00;;;19.20;19.20;;;;;;10403205;28;20233;-70
2021/03/30 19:42:38;;;;;;;7.73;6.90;;;19.00;19.40;;;;;;10398975;28;20229;-70
2021/03/30 19:47:41;;;;;;;9.57;8.57;;;18.90;19.60;;;;;;10400730;28;20328;-70
2021/03/30 19:52:44;;;;;;;11.50;7.07;;;18.80;19.80;;;;;;10408199;28;20282;-71
2021/03/30 19:57:47;;;;;;;7.27;6.57;;;18.70;19.90;;;;;;10398571;28;20236;-71
2021/03/30 20:02:52;;;;;;;7.10;6.40;;;18.50;19.70;;;;;;10403631;28;20229;-71
2021/03/30 20:07:54;;;;;;;6.93;6.17;;;18.30;20.00;;;;;;10402376;28;20674;-78
2021/03/30 20:12:58;;;;;;;7.67;6.10;;;18.00;20.10;;;;;;10394428;28;20351;-72
2021/03/30 20:18:01;;;;;;;8.47;6.30;;;17.80;20.30;;;;;;10393532;28;20309;-72
2021/03/30 20:23:03;;;;;;;7.40;5.27;;;17.60;20.60;;;;;;10396504;28;20231;-72
2021/03/30 20:28:06;;;;;;;7.63;5.90;;;17.40;20.50;;;;;;10391941;28;20227;-72
2021/03/30 20:33:09;;;;;;;6.40;5.10;;;17.20;20.70;;;;;;10408410;28;20234;-72
2021/03/30 20:38:11;;;;;;;7.23;5.90;;;17.10;21.00;;;;;;10398614;28;20632;-72
2021/03/30 20:43:13;;;;;;;7.67;5.63;;;17.10;21.00;;;;;;10399771;28;20244;-72
2021/03/30 20:48:16;;;;;;;7.27;5.43;;;17.00;21.10;;;;;;10397504;28;20232;-72
2021/03/30 20:53:19;;;;;;;6.80;5.30;;;16.80;21.20;;;;;;10396191;28;20225;-72
2021/03/30 20:58:21;;;;;;;8.50;5.27;;;16.60;21.00;;;;;;10397569;28;20529;-72
2021/03/30 21:03:24;;;;;;;5.33;4.80;;;16.30;21.20;;;;;;10398891;28;20520;-71
2021/03/30 21:08:26;;;;;;;6.67;5.40;;;16.10;21.70;;;;;;10394753;28;20234;-71
2021/03/30 21:13:29;;;;;;;5.70;5.10;;;16.00;21.60;;;;;;10394816;28;20614;-72
2021/03/30 21:18:32;;;;;;;5.80;4.87;;;15.90;21.80;;;;;;10390964;28;20332;-72
2021/03/30 21:23:34;;;;;;;6.97;4.77;;;15.80;22.10;;;;;;10398445;28;20267;-72
2021/03/30 21:28:37;;;;;;;4.90;4.40;;;15.60;22.00;;;;;;10397727;28;20230;-71
2021/03/30 21:33:40;;;;;;;5.30;4.80;;;15.40;22.20;;;;;;10395544;28;20279;-72
2021/03/30 21:38:42;;;;;;;6.13;4.60;;;15.30;22.20;;;;;;10391771;28;20355;-72
2021/03/30 21:43:45;;;;;;;6.23;4.50;;;15.30;22.10;;;;;;10396647;28;20284;-72
2021/03/30 21:48:48;;;;;;;6.07;4.27;;;15.20;22.70;;;;;;10394846;28;20240;-72
2021/03/30 21:53:50;;;;;;;4.80;4.30;;;15.20;22.40;;;;;;10394536;28;20236;-72
2021/03/30 21:58:52;;;;;;;7.17;5.27;;;15.20;22.10;;;;;;10390087;28;20731;-70
2021/03/30 22:03:56;;;;;;;5.60;5.10;;;15.10;22.10;;;;;;10396157;28;20725;-70
2021/03/30 22:08:58;;;;;;;6.50;5.47;;;15.10;22.50;;;;;;10391912;28;20217;-70
2021/03/30 22:14:00;;;;;;;6.13;5.53;;;15.00;22.20;;;;;;10392630;28;20225;-69
2021/03/30 22:19:04;;;;;;;6.97;6.00;;;15.00;22.40;;;;;;10397304;28;20237;-70
2021/03/30 22:24:07;;;;;;;7.07;5.33;;;14.80;22.70;;;;;;10389036;28;20623;-70
2021/03/30 22:29:09;;;;;;;7.83;5.43;;;14.80;22.60;;;;;;10392815;28;20234;-70
2021/03/30 22:34:13;;;;;;;6.67;5.10;;;14.60;22.60;;;;;;10392105;28;20229;-70
2021/03/30 22:39:16;;;;;;;6.73;5.37;;;14.50;22.90;;;;;;10393369;28;20240;-70
2021/03/30 22:44:18;;;;;;;6.60;4.93;;;14.20;22.90;;;;;;10390569;28;20235;-70
2021/03/30 22:49:22;;;;;;;5.00;4.40;;;14.00;22.70;;;;;;10395256;28;20226;-70
2021/03/30 22:54:24;;;;;;;7.03;5.00;;;13.80;23.30;;;;;;10398322;28;20237;-70
2021/03/30 22:59:26;;;;;;;6.10;4.87;;;13.80;23.40;;;;;;10389732;28;20232;-70
2021/03/30 23:04:29;;;;;;;4.40;4.00;;;13.70;23.40;;;;;;10385957;28;20248;-71
2021/03/30 23:09:31;;;;;;;6.23;4.30;;;13.70;23.50;;;;;;10387820;28;20701;-71
2021/03/30 23:14:34;;;;;;;6.83;4.73;;;13.50;23.40;;;;;;10392788;28;20224;-70
2021/03/30 23:19:38;;;;;;;5.50;4.40;;;13.50;23.60;;;;;;10387257;28;20245;-70
2021/03/30 23:24:40;;;;;;;6.90;5.10;;;13.40;23.90;;;;;;10391000;28;20238;-70
2021/03/30 23:29:42;;;;;;;5.53;4.00;;;13.40;23.70;;;;;;10387874;28;20229;-70
2021/03/30 23:34:46;;;;;;;5.40;4.90;;;13.30;23.70;;;;;;10389561;28;20225;-71
2021/03/30 23:39:48;;;;;;;5.93;5.37;;;13.20;23.90;;;;;;10386308;28;20261;-70
2021/03/30 23:44:50;;;;;;;5.47;4.70;;;13.20;23.80;;;;;;10387801;28;20238;-70
2021/03/30 23:49:53;;;;;;;6.57;5.53;;;13.10;23.70;;;;;;10387102;28;20858;-71
2021/03/30 23:54:55;;;;;;;6.40;5.50;;;13.00;23.90;;;;;;10393281;28;20234;-69
2021/03/30 23:59:58;;;;;;;6.90;6.20;;;12.90;23.80;;;;;;10387548;28;20230;-69
